sensor_id;sensor_type;location;lat;lon;timestamp;pressure;altitude;pressure_sealevel;temperature;humidity
33185;BME280;19550;42.872;25.494;2022-09-03T00:02:10;96260.91;;;19.71;100.00
33185;BME280;19550;42.872;25.494;2022-09-03T00:04:46;96260.84;;;19.68;100.00
33185;BME280;19550;42.872;25.494;2022-09-03T00:07:19;96269.28;;;19.68;100.00
33185;BME280;19550;42.872;25.494;2022-09-03T00:09:54;96264.47;;;19.38;100.00
33185;BME280;19550;42.872;25.494;2022-09-03T00:12:26;96275.72;;;19.38;100.00
33185;BME280;19550;42.872;25.494;2022-09-03T00:14:56;96273.63;;;19.32;100.00
33185;BME280;19550;42.872;25.494;2022-09-03T00:17:31;96277.63;;;19.31;100.00
33185;BME280;19550;42.872;25.494;2022-09-03T00:20:06;96281.81;;;19.14;100.00
33185;BME280;19550;42.872;25.494;2022-09-03T00:22:39;96288.16;;;19.11;100.00
33185;BME280;19550;42.872;25.494;2022-09-03T00:25:11;96282.06;;;19.05;100.00
33185;BME280;19550;42.872;25.494;2022-09-03T00:27:41;96299.66;;;19.02;100.00
33185;BME280;19550;42.872;25.494;2022-09-03T00:30:09;96294.34;;;18.94;100.00
33185;BME280;19550;42.872;25.494;2022-09-03T00:32:42;96299.41;;;18.85;100.00
33185;BME280;19550;42.872;25.494;2022-09-03T00:35:15;96297.72;;;18.80;100.00
33185;BME280;19550;42.872;25.494;2022-09-03T00:37:45;96302.75;;;18.68;100.00
33185;BME280;19550;42.872;25.494;2022-09-03T00:40:21;96295.13;;;18.68;100.00
33185;BME280;19550;42.872;25.494;2022-09-03T00:42:57;96297.16;;;18.71;100.00
33185;BME280;19550;42.872;25.494;2022-09-03T00:45:34;96300.66;;;18.64;100.00
33185;BME280;19550;42.872;25.494;2022-09-03T00:48:12;96296.19;;;18.60;100.00
33185;BME280;19550;42.872;25.494;2022-09-03T00:50:54;96293.44;;;18.63;100.00
33185;BME280;19550;42.872;25.494;2022-09-03T00:53:29;96297.41;;;18.62;100.00
33185;BME280;19550;42.872;25.494;2022-09-03T00:56:04;96297.53;;;18.47;100.00
33185;BME280;19550;42.872;25.494;2022-09-03T00:58:53;96305.13;;;18.46;100.00
33185;BME280;19550;42.872;25.494;2022-09-03T01:01:28;96310.75;;;18.46;100.00
33185;BME280;19550;42.872;25.494;2022-09-03T01:04:11;96309.63;;;18.51;100.00
33185;BME280;19550;42.872;25.494;2022-09-03T01:06:48;96303.19;;;18.50;100.00
33185;BME280;19550;42.872;25.494;2022-09-03T01:09:29;96300.09;;;18.55;100.00
33185;BME280;19550;42.872;25.494;2022-09-03T01:12:04;96298.09;;;18.56;100.00
33185;BME280;19550;42.872;25.494;2022-09-03T01:14:49;96305.03;;;18.62;100.00
33185;BME280;19550;42.872;25.494;2022-09-03T01:17:29;96308.66;;;18.62;100.00
33185;BME280;19550;42.872;25.494;2022-09-03T01:20:10;96306.03;;;18.73;100.00
33185;BME280;19550;42.872;25.494;2022-09-03T01:23:03;96308.22;;;18.60;100.00
33185;BME280;19550;42.872;25.494;2022-09-03T01:25:48;96311.63;;;18.50;100.00
33185;BME280;19550;42.872;25.494;2022-09-03T01:28:39;96310.69;;;18.43;100.00
33185;BME280;19550;42.872;25.494;2022-09-03T01:31:17;96314.28;;;18.43;100.00
33185;BME280;19550;42.872;25.494;2022-09-03T01:33:56;96316.84;;;18.29;100.00
33185;BME280;19550;42.872;25.494;2022-09-03T01:36:31;96316.34;;;18.23;100.00
33185;BME280;19550;42.872;25.494;2022-09-03T01:39:04;96321.38;;;18.14;100.00
33185;BME280;19550;42.872;25.494;2022-09-03T01:41:34;96322.25;;;18.18;100.00
33185;BME280;19550;42.872;25.494;2022-09-03T01:44:31;96322.63;;;18.17;100.00
33185;BME280;19550;42.872;25.494;2022-09-03T01:47:13;96326.75;;;18.23;100.00
33185;BME280;19550;42.872;25.494;2022-09-03T01:49:50;96312.66;;;18.19;100.00
33185;BME280;19550;42.872;25.494;2022-09-03T01:52:29;96326.84;;;18.26;100.00
33185;BME280;19550;42.872;25.494;2022-09-03T01:55:09;96320.31;;;18.22;100.00
33185;BME280;19550;42.872;25.494;2022-09-03T01:57:52;96320.03;;;18.08;100.00
33185;BME280;19550;42.872;25.494;2022-09-03T02:00:24;96328.94;;;17.91;100.00
33185;BME280;19550;42.872;25.494;2022-09-03T02:02:53;96317.41;;;17.96;100.00
33185;BME280;19550;42.872;25.494;2022-09-03T02:05:21;96324.63;;;17.97;100.00
33185;BME280;19550;42.872;25.494;2022-09-03T02:07:56;96329.59;;;17.84;100.00
33185;BME280;19550;42.872;25.494;2022-09-03T02:10:26;96325.31;;;17.91;100.00
33185;BME280;19550;42.872;25.494;2022-09-03T02:12:59;96329.28;;;17.90;100.00
33185;BME280;19550;42.872;25.494;2022-09-03T02:15:29;96320.47;;;17.88;100.00
33185;BME280;19550;42.872;25.494;2022-09-03T02:18:01;96327.00;;;17.95;100.00
33185;BME280;19550;42.872;25.494;2022-09-03T02:20:29;96322.16;;;17.92;100.00
33185;BME280;19550;42.872;25.494;2022-09-03T02:22:57;96320.00;;;18.05;100.00
33185;BME280;19550;42.872;25.494;2022-09-03T02:25:29;96317.91;;;18.02;100.00
33185;BME280;19550;42.872;25.494;2022-09-03T02:27:58;96315.41;;;17.97;100.00
33185;BME280;19550;42.872;25.494;2022-09-03T02:30:25;96316.16;;;17.94;100.00
33185;BME280;19550;42.872;25.494;2022-09-03T02:32:53;96321.38;;;17.95;100.00
33185;BME280;19550;42.872;25.494;2022-09-03T02:35:20;96315.06;;;17.98;100.00
33185;BME280;19550;42.872;25.494;2022-09-03T02:37:47;96328.63;;;17.96;100.00
33185;BME280;19550;42.872;25.494;2022-09-03T02:40:15;96323.78;;;17.93;100.00
33185;BME280;19550;42.872;25.494;2022-09-03T02:42:43;96332.25;;;17.97;100.00
33185;BME280;19550;42.872;25.494;2022-09-03T02:45:18;96333.72;;;17.91;100.00
33185;BME280;19550;42.872;25.494;2022-09-03T02:47:49;96334.84;;;17.67;100.00
33185;BME280;19550;42.872;25.494;2022-09-03T02:50:19;96336.91;;;17.70;100.00
33185;BME280;19550;42.872;25.494;2022-09-03T02:52:46;96328.88;;;17.68;100.00
33185;BME280;19550;42.872;25.494;2022-09-03T02:55:13;96333.31;;;17.54;100.00
33185;BME280;19550;42.872;25.494;2022-09-03T02:57:40;96332.56;;;17.57;100.00
33185;BME280;19550;42.872;25.494;2022-09-03T03:00:08;96327.28;;;17.52;100.00
33185;BME280;19550;42.872;25.494;2022-09-03T03:02:35;96330.00;;;17.48;100.00
33185;BME280;19550;42.872;25.494;2022-09-03T03:05:03;96324.25;;;17.41;100.00
33185;BME280;19550;42.872;25.494;2022-09-03T03:07:37;96328.81;;;17.49;100.00
33185;BME280;19550;42.872;25.494;2022-09-03T03:10:06;96323.66;;;17.51;100.00
33185;BME280;19550;42.872;25.494;2022-09-03T03:12:33;96320.03;;;17.51;100.00
33185;BME280;19550;42.872;25.494;2022-09-03T03:15:00;96323.81;;;17.58;100.00
33185;BME280;19550;42.872;25.494;2022-09-03T03:17:27;96323.53;;;17.63;100.00
33185;BME280;19550;42.872;25.494;2022-09-03T03:19:55;96320.31;;;17.61;100.00
33185;BME280;19550;42.872;25.494;2022-09-03T03:22:21;96320.72;;;17.63;100.00
33185;BME280;19550;42.872;25.494;2022-09-03T03:24:50;96320.16;;;17.73;100.00
33185;BME280;19550;42.872;25.494;2022-09-03T03:27:17;96318.38;;;17.65;100.00
33185;BME280;19550;42.872;25.494;2022-09-03T03:29:44;96324.16;;;17.72;100.00
33185;BME280;19550;42.872;25.494;2022-09-03T03:32:11;96322.38;;;17.64;100.00
33185;BME280;19550;42.872;25.494;2022-09-03T03:34:38;96322.47;;;17.68;100.00
33185;BME280;19550;42.872;25.494;2022-09-03T03:37:05;96327.50;;;17.62;100.00
33185;BME280;19550;42.872;25.494;2022-09-03T03:39:31;96323.91;;;17.62;100.00
33185;BME280;19550;42.872;25.494;2022-09-03T03:42:00;96318.28;;;17.62;100.00
33185;BME280;19550;42.872;25.494;2022-09-03T03:44:26;96316.56;;;17.57;100.00
33185;BME280;19550;42.872;25.494;2022-09-03T03:46:54;96315.03;;;17.60;100.00
33185;BME280;19550;42.872;25.494;2022-09-03T03:49:21;96311.16;;;17.48;100.00
33185;BME280;19550;42.872;25.494;2022-09-03T03:51:47;96315.69;;;17.53;100.00
33185;BME280;19550;42.872;25.494;2022-09-03T03:54:14;96321.47;;;17.60;100.00
33185;BME280;19550;42.872;25.494;2022-09-03T03:56:41;96312.69;;;17.62;100.00
33185;BME280;19550;42.872;25.494;2022-09-03T03:59:09;96316.47;;;17.69;100.00
33185;BME280;19550;42.872;25.494;2022-09-03T04:01:36;96324.16;;;17.72;100.00
33185;BME280;19550;42.872;25.494;2022-09-03T04:04:03;96323.34;;;17.72;100.00
33185;BME280;19550;42.872;25.494;2022-09-03T04:06:30;96334.84;;;17.67;100.00
33185;BME280;19550;42.872;25.494;2022-09-03T04:08:57;96333.56;;;17.64;100.00
33185;BME280;19550;42.872;25.494;2022-09-03T04:11:25;96334.03;;;17.66;100.00
33185;BME280;19550;42.872;25.494;2022-09-03T04:13:52;96331.94;;;17.63;100.00
33185;BME280;19550;42.872;25.494;2022-09-03T04:16:22;96339.44;;;17.59;100.00
33185;BME280;19550;42.872;25.494;2022-09-03T04:18:50;96339.94;;;17.61;100.00
33185;BME280;19550;42.872;25.494;2022-09-03T04:21:20;96337.66;;;17.67;100.00
33185;BME280;19550;42.872;25.494;2022-09-03T04:23:48;96339.28;;;17.68;100.00
33185;BME280;19550;42.872;25.494;2022-09-03T04:26:17;96339.19;;;17.64;100.00
33185;BME280;19550;42.872;25.494;2022-09-03T04:28:45;96332.84;;;17.67;100.00
33185;BME280;19550;42.872;25.494;2022-09-03T04:31:13;96332.09;;;17.70;100.00
33185;BME280;19550;42.872;25.494;2022-09-03T04:33:42;96350.09;;;17.69;100.00
33185;BME280;19550;42.872;25.494;2022-09-03T04:36:10;96346.72;;;17.79;100.00
33185;BME280;19550;42.872;25.494;2022-09-03T04:38:39;96352.25;;;17.76;100.00
33185;BME280;19550;42.872;25.494;2022-09-03T04:41:08;96347.38;;;17.73;100.00
33185;BME280;19550;42.872;25.494;2022-09-03T04:43:36;96359.94;;;17.79;100.00
33185;BME280;19550;42.872;25.494;2022-09-03T04:46:04;96361.84;;;17.75;100.00
33185;BME280;19550;42.872;25.494;2022-09-03T04:48:33;96372.53;;;17.69;100.00
33185;BME280;19550;42.872;25.494;2022-09-03T04:51:04;96367.72;;;17.70;100.00
33185;BME280;19550;42.872;25.494;2022-09-03T04:53:32;96372.09;;;17.67;100.00
33185;BME280;19550;42.872;25.494;2022-09-03T04:55:58;96376.59;;;17.72;100.00
33185;BME280;19550;42.872;25.494;2022-09-03T04:58:25;96382.56;;;17.70;100.00
33185;BME280;19550;42.872;25.494;2022-09-03T05:00:52;96393.88;;;17.58;100.00
33185;BME280;19550;42.872;25.494;2022-09-03T05:03:19;96385.97;;;17.44;100.00
33185;BME280;19550;42.872;25.494;2022-09-03T05:05:52;96394.66;;;17.39;100.00
33185;BME280;19550;42.872;25.494;2022-09-03T05:08:20;96394.81;;;17.46;100.00
33185;BME280;19550;42.872;25.494;2022-09-03T05:10:48;96403.06;;;17.39;100.00
33185;BME280;19550;42.872;25.494;2022-09-03T05:13:14;96405.41;;;17.37;100.00
33185;BME280;19550;42.872;25.494;2022-09-03T05:15:42;96396.13;;;17.33;100.00
33185;BME280;19550;42.872;25.494;2022-09-03T05:18:09;96405.13;;;17.42;100.00
33185;BME280;19550;42.872;25.494;2022-09-03T05:20:36;96409.00;;;17.54;100.00
33185;BME280;19550;42.872;25.494;2022-09-03T05:23:03;96414.16;;;17.52;100.00
33185;BME280;19550;42.872;25.494;2022-09-03T05:25:31;96418.13;;;17.66;100.00
33185;BME280;19550;42.872;25.494;2022-09-03T05:27:59;96419.09;;;17.58;100.00
33185;BME280;19550;42.872;25.494;2022-09-03T05:30:26;96416.66;;;17.57;100.00
33185;BME280;19550;42.872;25.494;2022-09-03T05:32:53;96412.88;;;17.65;100.00
33185;BME280;19550;42.872;25.494;2022-09-03T05:35:20;96416.56;;;17.69;100.00
33185;BME280;19550;42.872;25.494;2022-09-03T05:37:46;96418.72;;;17.75;100.00
33185;BME280;19550;42.872;25.494;2022-09-03T05:40:13;96414.59;;;17.88;100.00
33185;BME280;19550;42.872;25.494;2022-09-03T05:42:42;96406.59;;;17.87;100.00
33185;BME280;19550;42.872;25.494;2022-09-03T05:45:09;96414.59;;;17.88;100.00
33185;BME280;19550;42.872;25.494;2022-09-03T05:47:37;96413.06;;;17.91;100.00
33185;BME280;19550;42.872;25.494;2022-09-03T05:50:06;96427.59;;;17.77;100.00
33185;BME280;19550;42.872;25.494;2022-09-03T05:52:35;96428.91;;;17.83;100.00
33185;BME280;19550;42.872;25.494;2022-09-03T05:55:02;96430.09;;;17.82;100.00
33185;BME280;19550;42.872;25.494;2022-09-03T05:57:29;96427.84;;;17.88;100.00
33185;BME280;19550;42.872;25.494;2022-09-03T05:59:57;96432.19;;;17.85;100.00
33185;BME280;19550;42.872;25.494;2022-09-03T06:02:24;96436.69;;;17.90;100.00
33185;BME280;19550;42.872;25.494;2022-09-03T06:04:51;96425.09;;;17.92;100.00
33185;BME280;19550;42.872;25.494;2022-09-03T06:07:19;96440.50;;;17.82;100.00
33185;BME280;19550;42.872;25.494;2022-09-03T06:09:46;96442.22;;;17.86;100.00
33185;BME280;19550;42.872;25.494;2022-09-03T06:12:13;96442.34;;;17.74;100.00
33185;BME280;19550;42.872;25.494;2022-09-03T06:14:40;96453.28;;;17.79;100.00
33185;BME280;19550;42.872;25.494;2022-09-03T06:17:08;96461.41;;;17.84;100.00
33185;BME280;19550;42.872;25.494;2022-09-03T06:19:37;96461.34;;;17.81;100.00
33185;BME280;19550;42.872;25.494;2022-09-03T06:22:04;96464.94;;;17.81;100.00
33185;BME280;19550;42.872;25.494;2022-09-03T06:24:30;96472.63;;;17.84;100.00
33185;BME280;19550;42.872;25.494;2022-09-03T06:26:57;96469.34;;;17.82;100.00
33185;BME280;19550;42.872;25.494;2022-09-03T06:29:24;96466.56;;;17.82;100.00
33185;BME280;19550;42.872;25.494;2022-09-03T06:31:52;96472.72;;;17.88;100.00
33185;BME280;19550;42.872;25.494;2022-09-03T06:34:20;96466.66;;;17.86;100.00
33185;BME280;19550;42.872;25.494;2022-09-03T06:36:50;96472.72;;;17.88;100.00
33185;BME280;19550;42.872;25.494;2022-09-03T06:39:17;96470.25;;;17.86;100.00
33185;BME280;19550;42.872;25.494;2022-09-03T06:41:44;96468.50;;;17.98;100.00
33185;BME280;19550;42.872;25.494;2022-09-03T06:44:12;96481.22;;;18.11;100.00
33185;BME280;19550;42.872;25.494;2022-09-03T06:46:39;96480.91;;;18.16;100.00
33185;BME280;19550;42.872;25.494;2022-09-03T06:49:07;96486.19;;;18.17;100.00
33185;BME280;19550;42.872;25.494;2022-09-03T06:51:37;96488.63;;;18.19;100.00
33185;BME280;19550;42.872;25.494;2022-09-03T06:54:05;96482.84;;;18.12;100.00
33185;BME280;19550;42.872;25.494;2022-09-03T06:56:33;96498.22;;;18.18;100.00
33185;BME280;19550;42.872;25.494;2022-09-03T06:59:04;96505.19;;;18.08;100.00
33185;BME280;19550;42.872;25.494;2022-09-03T07:01:32;96504.31;;;18.04;100.00
33185;BME280;19550;42.872;25.494;2022-09-03T07:04:00;96511.59;;;17.90;100.00
33185;BME280;19550;42.872;25.494;2022-09-03T07:06:29;96508.44;;;17.91;100.00
33185;BME280;19550;42.872;25.494;2022-09-03T07:08:58;96515.38;;;17.97;100.00
33185;BME280;19550;42.872;25.494;2022-09-03T07:11:26;96519.34;;;17.96;100.00
33185;BME280;19550;42.872;25.494;2022-09-03T07:13:56;96516.56;;;17.96;100.00
33185;BME280;19550;42.872;25.494;2022-09-03T07:16:25;96515.72;;;17.96;100.00
33185;BME280;19550;42.872;25.494;2022-09-03T07:18:53;96511.47;;;18.02;100.00
33185;BME280;19550;42.872;25.494;2022-09-03T07:21:23;96520.97;;;17.97;100.00
33185;BME280;19550;42.872;25.494;2022-09-03T07:23:51;96525.06;;;18.00;100.00
33185;BME280;19550;42.872;25.494;2022-09-03T07:26:21;96525.50;;;18.02;100.00
33185;BME280;19550;42.872;25.494;2022-09-03T07:28:49;96527.34;;;17.94;100.00
33185;BME280;19550;42.872;25.494;2022-09-03T07:31:18;96532.72;;;18.03;100.00
33185;BME280;19550;42.872;25.494;2022-09-03T07:33:47;96538.56;;;17.94;100.00
33185;BME280;19550;42.872;25.494;2022-09-03T07:36:15;96538.63;;;17.98;100.00
33185;BME280;19550;42.872;25.494;2022-09-03T07:38:43;96534.66;;;17.99;100.00
33185;BME280;19550;42.872;25.494;2022-09-03T07:41:11;96530.84;;;18.07;100.00
33185;BME280;19550;42.872;25.494;2022-09-03T07:43:41;96532.91;;;18.10;100.00
33185;BME280;19550;42.872;25.494;2022-09-03T07:46:11;96531.66;;;18.07;100.00
33185;BME280;19550;42.872;25.494;2022-09-03T07:48:39;96533.06;;;18.17;100.00
33185;BME280;19550;42.872;25.494;2022-09-03T07:51:06;96534.84;;;18.25;100.00
33185;BME280;19550;42.872;25.494;2022-09-03T07:53:34;96528.22;;;18.33;100.00
33185;BME280;19550;42.872;25.494;2022-09-03T07:56:02;96539.66;;;18.44;100.00
33185;BME280;19550;42.872;25.494;2022-09-03T07:58:29;96524.59;;;18.52;100.00
33185;BME280;19550;42.872;25.494;2022-09-03T08:01:02;96541.91;;;18.54;100.00
33185;BME280;19550;42.872;25.494;2022-09-03T08:03:29;96528.59;;;18.51;100.00
33185;BME280;19550;42.872;25.494;2022-09-03T08:06:00;96527.78;;;18.50;100.00
33185;BME280;19550;42.872;25.494;2022-09-03T08:08:27;96525.59;;;18.59;100.00
33185;BME280;19550;42.872;25.494;2022-09-03T08:10:54;96522.28;;;18.73;100.00
33185;BME280;19550;42.872;25.494;2022-09-03T08:13:22;96527.66;;;18.82;100.00
33185;BME280;19550;42.872;25.494;2022-09-03T08:15:53;96529.78;;;18.88;100.00
33185;BME280;19550;42.872;25.494;2022-09-03T08:18:21;96531.91;;;18.95;100.00
33185;BME280;19550;42.872;25.494;2022-09-03T08:20:48;96524.06;;;19.04;100.00
33185;BME280;19550;42.872;25.494;2022-09-03T08:23:15;96527.34;;;19.06;100.00
33185;BME280;19550;42.872;25.494;2022-09-03T08:25:42;96527.03;;;19.11;100.00
33185;BME280;19550;42.872;25.494;2022-09-03T08:28:09;96521.56;;;18.99;100.00
33185;BME280;19550;42.872;25.494;2022-09-03T08:30:36;96520.81;;;19.02;100.00
33185;BME280;19550;42.872;25.494;2022-09-03T08:33:03;96517.19;;;19.01;100.00
33185;BME280;19550;42.872;25.494;2022-09-03T08:35:32;96517.84;;;19.14;100.00
33185;BME280;19550;42.872;25.494;2022-09-03T08:38:03;96511.59;;;19.24;100.00
33185;BME280;19550;42.872;25.494;2022-09-03T08:40:32;96514.91;;;19.30;100.00
33185;BME280;19550;42.872;25.494;2022-09-03T08:43:07;96518.34;;;19.42;100.00
33185;BME280;19550;42.872;25.494;2022-09-03T08:45:38;96503.34;;;19.54;100.00
33185;BME280;19550;42.872;25.494;2022-09-03T08:48:08;96513.81;;;19.57;100.00
33185;BME280;19550;42.872;25.494;2022-09-03T08:50:41;96511.56;;;19.66;100.00
33185;BME280;19550;42.872;25.494;2022-09-03T08:53:16;96510.91;;;19.76;100.00
33185;BME280;19550;42.872;25.494;2022-09-03T08:55:50;96525.34;;;19.75;100.00
33185;BME280;19550;42.872;25.494;2022-09-03T08:58:19;96524.28;;;19.83;100.00
33185;BME280;19550;42.872;25.494;2022-09-03T09:00:49;96529.38;;;19.74;100.00
33185;BME280;19550;42.872;25.494;2022-09-03T09:03:46;96525.03;;;19.54;100.00
33185;BME280;19550;42.872;25.494;2022-09-03T09:06:24;96530.50;;;19.69;100.00
33185;BME280;19550;42.872;25.494;2022-09-03T09:09:02;96532.16;;;19.48;100.00
33185;BME280;19550;42.872;25.494;2022-09-03T09:11:41;96532.16;;;19.48;100.00
33185;BME280;19550;42.872;25.494;2022-09-03T09:14:18;96507.06;;;19.39;100.00
33185;BME280;19550;42.872;25.494;2022-09-03T09:16:52;96534.22;;;19.31;100.00
33185;BME280;19550;42.872;25.494;2022-09-03T09:19:30;96550.22;;;19.27;100.00
33185;BME280;19550;42.872;25.494;2022-09-03T09:22:06;96534.41;;;19.42;100.00
33185;BME280;19550;42.872;25.494;2022-09-03T09:24:38;96534.84;;;19.44;100.00
33185;BME280;19550;42.872;25.494;2022-09-03T09:27:07;96536.63;;;19.52;100.00
33185;BME280;19550;42.872;25.494;2022-09-03T09:29:35;96544.38;;;19.59;100.00
33185;BME280;19550;42.872;25.494;2022-09-03T09:32:03;96541.44;;;19.74;100.00
33185;BME280;19550;42.872;25.494;2022-09-03T09:34:33;96540.75;;;19.81;100.00
33185;BME280;19550;42.872;25.494;2022-09-03T09:37:05;96541.88;;;20.03;100.00
33185;BME280;19550;42.872;25.494;2022-09-03T09:39:35;96545.88;;;20.02;100.00
33185;BME280;19550;42.872;25.494;2022-09-03T09:42:06;96544.19;;;20.23;100.00
33185;BME280;19550;42.872;25.494;2022-09-03T09:44:34;96536.84;;;20.42;99.94
33185;BME280;19550;42.872;25.494;2022-09-03T09:47:04;96548.44;;;20.37;100.00
33185;BME280;19550;42.872;25.494;2022-09-03T09:49:33;96547.94;;;20.31;100.00
33185;BME280;19550;42.872;25.494;2022-09-03T09:52:10;96550.75;;;20.57;99.95
33185;BME280;19550;42.872;25.494;2022-09-03T09:54:38;96552.03;;;20.63;97.98
33185;BME280;19550;42.872;25.494;2022-09-03T09:57:07;96546.25;;;20.83;97.56
33185;BME280;19550;42.872;25.494;2022-09-03T09:59:34;96556.78;;;20.89;97.62
33185;BME280;19550;42.872;25.494;2022-09-03T10:02:13;96561.16;;;20.53;97.26
33185;BME280;19550;42.872;25.494;2022-09-03T10:04:41;96560.97;;;20.69;97.97
33185;BME280;19550;42.872;25.494;2022-09-03T10:07:24;96558.13;;;20.69;98.01
33185;BME280;19550;42.872;25.494;2022-09-03T10:10:03;96562.34;;;20.52;98.95
33185;BME280;19550;42.872;25.494;2022-09-03T10:12:33;96569.22;;;20.55;98.83
33185;BME280;19550;42.872;25.494;2022-09-03T10:15:09;96561.34;;;20.68;97.04
33185;BME280;19550;42.872;25.494;2022-09-03T10:17:45;96563.06;;;20.76;97.02
33185;BME280;19550;42.872;25.494;2022-09-03T10:20:18;96560.94;;;20.99;96.00
33185;BME280;19550;42.872;25.494;2022-09-03T10:22:59;96575.81;;;21.29;94.85
33185;BME280;19550;42.872;25.494;2022-09-03T10:25:35;96573.53;;;21.42;93.16
33185;BME280;19550;42.872;25.494;2022-09-03T10:28:06;96583.25;;;21.48;92.04
33185;BME280;19550;42.872;25.494;2022-09-03T10:30:48;96579.59;;;21.44;91.83
33185;BME280;19550;42.872;25.494;2022-09-03T10:33:24;96582.78;;;21.06;92.30
33185;BME280;19550;42.872;25.494;2022-09-03T10:35:59;96585.78;;;21.20;92.12
33185;BME280;19550;42.872;25.494;2022-09-03T10:38:33;96584.66;;;21.28;92.36
33185;BME280;19550;42.872;25.494;2022-09-03T10:41:12;96580.59;;;21.25;92.85
33185;BME280;19550;42.872;25.494;2022-09-03T10:44:05;96581.03;;;21.27;92.87
33185;BME280;19550;42.872;25.494;2022-09-03T10:46:42;96583.63;;;21.43;92.49
33185;BME280;19550;42.872;25.494;2022-09-03T10:49:21;96591.47;;;21.60;91.97
33185;BME280;19550;42.872;25.494;2022-09-03T10:51:57;96588.34;;;21.72;92.45
33185;BME280;19550;42.872;25.494;2022-09-03T10:54:33;96595.13;;;21.64;91.67
33185;BME280;19550;42.872;25.494;2022-09-03T10:57:09;96600.53;;;21.43;91.72
33185;BME280;19550;42.872;25.494;2022-09-03T10:59:48;96596.00;;;21.35;93.14
33185;BME280;19550;42.872;25.494;2022-09-03T11:05:12;96599.72;;;21.09;93.80
33185;BME280;19550;42.872;25.494;2022-09-03T11:07:46;96590.56;;;20.86;95.12
33185;BME280;19550;42.872;25.494;2022-09-03T11:10:20;96597.09;;;20.63;95.56
33185;BME280;19550;42.872;25.494;2022-09-03T11:12:54;96594.97;;;20.53;97.11
33185;BME280;19550;42.872;25.494;2022-09-03T11:15:31;96591.19;;;20.72;98.17
33185;BME280;19550;42.872;25.494;2022-09-03T11:18:03;96596.69;;;20.91;97.18
33185;BME280;19550;42.872;25.494;2022-09-03T11:20:34;96592.19;;;20.87;96.35
33185;BME280;19550;42.872;25.494;2022-09-03T11:23:03;96592.22;;;20.90;95.86
33185;BME280;19550;42.872;25.494;2022-09-03T11:25:35;96576.19;;;20.65;96.08
33185;BME280;19550;42.872;25.494;2022-09-03T11:28:11;96597.69;;;20.76;96.42
33185;BME280;19550;42.872;25.494;2022-09-03T11:30:48;96598.13;;;20.78;97.86
33185;BME280;19550;42.872;25.494;2022-09-03T11:33:20;96594.50;;;20.78;98.38
33185;BME280;19550;42.872;25.494;2022-09-03T11:35:55;96597.00;;;20.56;97.95
33185;BME280;19550;42.872;25.494;2022-09-03T11:38:22;96596.38;;;20.70;98.25
33185;BME280;19550;42.872;25.494;2022-09-03T11:41:03;96607.13;;;20.91;97.64
33185;BME280;19550;42.872;25.494;2022-09-03T11:43:37;96612.41;;;20.92;95.43
33185;BME280;19550;42.872;25.494;2022-09-03T11:46:08;96604.69;;;20.89;95.29
33185;BME280;19550;42.872;25.494;2022-09-03T11:48:40;96609.22;;;20.68;96.20
33185;BME280;19550;42.872;25.494;2022-09-03T11:51:30;96605.94;;;20.62;96.55
33185;BME280;19550;42.872;25.494;2022-09-03T11:53:58;96616.69;;;20.53;96.72
33185;BME280;19550;42.872;25.494;2022-09-03T11:56:28;96610.72;;;20.58;97.39
33185;BME280;19550;42.872;25.494;2022-09-03T11:59:15;96605.53;;;20.60;98.49
33185;BME280;19550;42.872;25.494;2022-09-03T12:01:46;96609.53;;;20.59;96.06
33185;BME280;19550;42.872;25.494;2022-09-03T12:04:17;96599.88;;;20.60;97.19
33185;BME280;19550;42.872;25.494;2022-09-03T12:07:00;96591.38;;;20.56;97.20
33185;BME280;19550;42.872;25.494;2022-09-03T12:09:47;96615.44;;;20.50;97.18
33185;BME280;19550;42.872;25.494;2022-09-03T12:12:31;96604.50;;;20.45;98.87
33185;BME280;19550;42.872;25.494;2022-09-03T12:15:08;96614.16;;;20.48;98.20
33185;BME280;19550;42.872;25.494;2022-09-03T12:17:44;96606.50;;;20.45;98.20
33185;BME280;19550;42.872;25.494;2022-09-03T12:20:35;96609.22;;;20.38;98.01
33185;BME280;19550;42.872;25.494;2022-09-03T12:23:02;96606.03;;;20.39;98.01
33185;BME280;19550;42.872;25.494;2022-09-03T12:25:29;96612.84;;;20.38;99.07
33185;BME280;19550;42.872;25.494;2022-09-03T12:27:58;96603.72;;;20.48;98.82
33185;BME280;19550;42.872;25.494;2022-09-03T12:30:28;96611.16;;;20.34;99.17
33185;BME280;19550;42.872;25.494;2022-09-03T12:33:03;96618.28;;;20.28;98.90
33185;BME280;19550;42.872;25.494;2022-09-03T12:35:31;96611.13;;;20.07;99.38
33185;BME280;19550;42.872;25.494;2022-09-03T12:37:58;96602.22;;;20.05;99.92
33185;BME280;19550;42.872;25.494;2022-09-03T12:40:27;96609.09;;;20.08;100.00
33185;BME280;19550;42.872;25.494;2022-09-03T12:42:54;96612.53;;;20.20;100.00
33185;BME280;19550;42.872;25.494;2022-09-03T12:45:24;96609.22;;;20.15;100.00
33185;BME280;19550;42.872;25.494;2022-09-03T12:47:52;96616.34;;;20.09;100.00
33185;BME280;19550;42.872;25.494;2022-09-03T12:50:20;96617.16;;;20.09;100.00
33185;BME280;19550;42.872;25.494;2022-09-03T12:52:50;96621.50;;;20.03;100.00
33185;BME280;19550;42.872;25.494;2022-09-03T12:55:25;96624.94;;;19.93;100.00
33185;BME280;19550;42.872;25.494;2022-09-03T12:57:58;96617.38;;;19.97;100.00
33185;BME280;19550;42.872;25.494;2022-09-03T13:00:29;96616.38;;;19.86;100.00
33185;BME280;19550;42.872;25.494;2022-09-03T13:03:01;96615.69;;;19.93;100.00
33185;BME280;19550;42.872;25.494;2022-09-03T13:05:32;96615.63;;;19.89;100.00
33185;BME280;19550;42.872;25.494;2022-09-03T13:08:02;96618.88;;;19.91;100.00